createdAt,value
2018-05-12T00:00:08.645Z,42.66
2018-05-12T00:00:48.495Z,42.76
2018-05-12T00:01:29.022Z,42.76
2018-05-12T00:02:09.556Z,42.47
2018-05-12T00:02:50.880Z,42.66
2018-05-12T00:03:32.646Z,42.76
2018-05-12T00:04:12.661Z,42.76
2018-05-12T00:04:53.199Z,42.47
2018-05-12T00:05:33.729Z,42.76
2018-05-12T00:06:14.258Z,42.66
2018-05-12T00:06:54.790Z,42.76
2018-05-12T00:07:36.646Z,42.54
2018-05-12T00:08:17.271Z,42.47
2018-05-12T00:08:57.794Z,42.73
2018-05-12T00:09:38.325Z,42.66
2018-05-12T00:10:18.853Z,42.64
2018-05-12T00:11:00.149Z,42.76
2018-05-12T00:11:39.908Z,42.44
2018-05-12T00:12:21.144Z,42.56
2018-05-12T00:13:00.970Z,42.85
2018-05-12T00:13:41.507Z,43.04
2018-05-12T00:14:22.034Z,42.83
2018-05-12T00:15:02.633Z,43.02
2018-05-12T00:15:43.091Z,42.83
2018-05-12T00:16:24.582Z,42.83
2018-05-12T00:17:05.089Z,43.02
2018-05-12T00:17:45.617Z,43.02
2018-05-12T00:18:26.144Z,42.93
2018-05-12T00:19:07.151Z,42.93
2018-05-12T00:19:47.187Z,43.02
2018-05-12T00:20:27.714Z,43.02
2018-05-12T00:21:08.248Z,42.93
2018-05-12T00:21:48.774Z,42.93
2018-05-12T00:22:30.164Z,43.02
2018-05-12T00:23:10.706Z,43.12
2018-05-12T00:23:51.229Z,43.12
2018-05-12T00:24:31.748Z,43.3
2018-05-12T00:25:12.285Z,43.59
2018-05-12T00:25:52.809Z,43.21
2018-05-12T00:26:33.336Z,43.69
2018-05-12T00:27:14.655Z,43.5
2018-05-12T00:27:54.387Z,43.3
2018-05-12T00:28:34.916Z,43.59
2018-05-12T00:29:16.151Z,43.5
2018-05-12T00:29:55.948Z,43.12
2018-05-12T00:30:36.488Z,43.4
2018-05-12T00:31:17.016Z,43.5
2018-05-12T00:31:57.545Z,43.4
2018-05-12T00:32:38.076Z,43.12
2018-05-12T00:33:19.517Z,43.5
2018-05-12T00:34:00.031Z,43.5
2018-05-12T00:34:40.547Z,43.12
2018-05-12T00:35:21.080Z,43.21
2018-05-12T00:36:02.506Z,43.21
2018-05-12T00:36:43.648Z,43.4
2018-05-12T00:37:23.561Z,43.3
2018-05-12T00:38:04.087Z,43.4
2018-05-12T00:38:44.605Z,43.3
2018-05-12T00:39:25.134Z,43.4
2018-05-12T00:40:05.657Z,43.4
2018-05-12T00:40:46.191Z,43.4
2018-05-12T00:41:26.718Z,43.21
2018-05-12T00:42:07.247Z,43.3
2018-05-12T00:42:47.772Z,43.3
2018-05-12T00:43:28.301Z,43.09
2018-05-12T00:44:08.808Z,43.21
2018-05-12T00:44:49.319Z,43.3
2018-05-12T00:45:29.834Z,43.29
2018-05-12T00:46:11.651Z,43.19
2018-05-12T00:46:51.534Z,43.29
2018-05-12T00:47:32.063Z,43.3
2018-05-12T00:48:12.588Z,43.21
2018-05-12T00:48:53.115Z,43.19
2018-05-12T00:49:33.642Z,43.69
2018-05-12T00:50:14.173Z,43.59
2018-05-12T00:50:54.697Z,43.66
2018-05-12T00:51:35.223Z,43.21
2018-05-12T00:52:15.756Z,43.21
2018-05-12T00:52:56.265Z,43.21
2018-05-12T00:53:36.793Z,43.29
2018-05-12T00:54:17.888Z,43.3
2018-05-12T00:54:58.417Z,43.29
2018-05-12T00:55:38.944Z,43.66
2018-05-12T00:56:20.649Z,43.66
2018-05-12T00:57:00.006Z,43.29
2018-05-12T00:57:40.949Z,43.57
2018-05-12T00:58:21.428Z,43.48
2018-05-12T00:59:01.955Z,43.66
2018-05-12T00:59:42.995Z,43.66
2018-05-12T01:00:24.657Z,43.66
2018-05-12T01:01:05.151Z,43.48
2018-05-12T01:01:45.914Z,43.38
2018-05-12T01:02:26.520Z,43.38
2018-05-12T01:03:08.289Z,43.57
2018-05-12T01:03:49.420Z,43.57
2018-05-12T01:04:29.945Z,43.57
2018-05-12T01:05:11.155Z,43.38
2018-05-12T01:05:51.011Z,43.29
2018-05-12T01:06:32.296Z,43.48
2018-05-12T01:07:12.836Z,43.48
2018-05-12T01:07:53.354Z,43.48
2018-05-12T01:08:33.887Z,43.57
2018-05-12T01:09:14.404Z,43.48
2018-05-12T01:09:56.154Z,43.57
2018-05-12T01:10:36.144Z,43.57
2018-05-12T01:11:16.615Z,43.57
2018-05-12T01:11:57.141Z,43.38
2018-05-12T01:12:37.667Z,43.38
2018-05-12T01:13:18.200Z,43.48
2018-05-12T01:13:58.727Z,43.48
2018-05-12T01:14:39.266Z,43.48
2018-05-12T01:15:19.795Z,43.38
2018-05-12T01:16:00.321Z,43.48
2018-05-12T01:16:40.825Z,43.38
2018-05-12T01:17:21.352Z,43.48
2018-05-12T01:18:01.879Z,43.48
2018-05-12T01:18:42.392Z,43.48
2018-05-12T01:19:22.921Z,43.48
2018-05-12T01:20:03.454Z,43.09
2018-05-12T01:20:43.974Z,43.48
2018-05-12T01:21:24.502Z,43.48
2018-05-12T01:22:05.021Z,43.29
2018-05-12T01:22:45.544Z,43.29
2018-05-12T01:23:26.654Z,43.29
2018-05-12T01:26:46.221Z,43.48
2018-05-12T01:27:26.745Z,43.57
2018-05-12T01:28:07.271Z,43.57
2018-05-12T01:28:47.792Z,43.38
2018-05-12T01:29:28.319Z,43.38
2018-05-12T01:30:08.845Z,43.38
2018-05-12T01:30:49.371Z,43.66
2018-05-12T01:31:29.892Z,43.48
2018-05-12T01:32:10.433Z,43.38
2018-05-12T01:32:50.955Z,43.48
2018-05-12T01:33:31.473Z,43.48
2018-05-12T01:34:12.001Z,43.48
2018-05-12T01:34:52.527Z,43.48
2018-05-12T01:35:33.052Z,43.19
2018-05-12T01:36:13.581Z,43.29
2018-05-12T01:36:54.551Z,43.29
2018-05-12T01:37:35.047Z,43.38
2018-05-12T01:38:16.269Z,43.29
2018-05-12T01:38:56.090Z,43.66
2018-05-12T01:39:36.613Z,43.57
2018-05-12T01:40:17.125Z,43.66
2018-05-12T01:40:57.646Z,43.66
2018-05-12T01:41:38.161Z,43.66
2018-05-12T01:42:18.691Z,43.48
2018-05-12T01:42:59.211Z,43.38
2018-05-12T01:43:39.729Z,43.38
2018-05-12T01:44:20.255Z,43.48
2018-05-12T01:45:00.785Z,43.46
2018-05-12T01:45:42.264Z,43.36
2018-05-12T01:46:21.830Z,43.55
2018-05-12T01:47:02.350Z,43.65
2018-05-12T01:47:42.874Z,43.65
2018-05-12T01:48:23.400Z,43.74
2018-05-12T01:49:03.922Z,43.55
2018-05-12T01:49:44.450Z,43.55
2018-05-12T01:50:24.978Z,43.65
2018-05-12T01:51:05.496Z,43.74
2018-05-12T01:51:46.020Z,43.74
2018-05-12T01:52:26.536Z,43.74
2018-05-12T01:53:07.054Z,43.65
2018-05-12T01:53:47.603Z,43.84
2018-05-12T01:54:28.095Z,43.74
2018-05-12T01:55:08.621Z,43.74
2018-05-12T01:55:49.148Z,43.74
2018-05-12T01:56:29.672Z,43.84
2018-05-12T01:57:10.197Z,43.55
2018-05-12T01:57:50.727Z,43.65
2018-05-12T01:58:31.255Z,43.55
2018-05-12T01:59:11.780Z,43.55
2018-05-12T01:59:52.306Z,43.65
2018-05-12T02:00:32.837Z,43.74
2018-05-12T02:01:13.357Z,43.65
2018-05-12T02:01:53.890Z,43.55
2018-05-12T02:02:34.416Z,43.84
2018-05-12T02:03:14.937Z,43.65
2018-05-12T02:03:55.463Z,43.55
2018-05-12T02:04:35.990Z,43.55
2018-05-12T02:05:16.518Z,43.55
2018-05-12T02:05:57.039Z,43.93
2018-05-12T02:06:37.569Z,43.55
2018-05-12T02:07:18.768Z,43.55
2018-05-12T02:08:02.035Z,43.74
2018-05-12T02:08:42.549Z,43.36
2018-05-12T02:09:23.082Z,43.93
2018-05-12T02:10:04.130Z,43.84
2018-05-12T02:10:44.659Z,44.02
2018-05-12T02:11:25.186Z,43.93
2018-05-12T02:12:05.707Z,43.84
2018-05-12T02:12:46.225Z,43.93
2018-05-12T02:13:26.748Z,43.46
2018-05-12T02:14:07.309Z,43.93
2018-05-12T02:14:47.784Z,43.93
2018-05-12T02:15:28.310Z,43.93
2018-05-12T02:16:09.768Z,43.74
2018-05-12T02:16:49.346Z,43.74
2018-05-12T02:17:29.876Z,43.74
2018-05-12T02:18:10.399Z,43.84
2018-05-12T02:18:50.927Z,43.93
2018-05-12T02:19:31.460Z,43.74
2018-05-12T02:20:11.986Z,44.12
2018-05-12T02:20:52.514Z,43.84
2018-05-12T02:21:33.041Z,43.84
2018-05-12T02:22:13.565Z,43.93
2018-05-12T02:22:54.080Z,43.93
2018-05-12T02:23:35.392Z,43.84
2018-05-12T02:24:15.922Z,44.02
2018-05-12T02:24:56.449Z,43.93
2018-05-12T02:25:36.976Z,43.93
2018-05-12T02:26:17.494Z,43.93
2018-05-12T02:26:58.022Z,43.84
2018-05-12T02:27:40.770Z,43.84
2018-05-12T02:28:20.337Z,43.74
2018-05-12T02:29:00.865Z,43.84
2018-05-12T02:29:41.394Z,43.84
2018-05-12T02:30:21.996Z,43.84
2018-05-12T02:31:02.433Z,43.84
2018-05-12T02:31:42.956Z,43.74
2018-05-12T02:32:23.471Z,43.84
2018-05-12T02:33:04.001Z,44.22
2018-05-12T02:33:44.535Z,44.02
2018-05-12T02:34:25.061Z,43.93
2018-05-12T02:35:05.604Z,43.74
2018-05-12T02:35:46.769Z,43.55
2018-05-12T02:36:26.644Z,43.84
2018-05-12T02:37:07.160Z,43.36
2018-05-12T02:37:47.689Z,43.84
2018-05-12T02:38:28.222Z,43.93
2018-05-12T02:39:10.269Z,43.93
2018-05-12T02:39:49.261Z,43.74
2018-05-12T02:40:30.606Z,43.74
2018-05-12T02:41:11.131Z,44.02
2018-05-12T02:41:51.656Z,43.93
2018-05-12T02:42:32.186Z,43.84
2018-05-12T02:43:12.707Z,43.74
2018-05-12T02:43:53.234Z,43.84
2018-05-12T02:44:33.743Z,43.84
2018-05-12T02:45:14.769Z,43.93
2018-05-12T02:45:54.792Z,43.74
2018-05-12T02:46:35.321Z,43.84
2018-05-12T02:47:15.849Z,43.84
2018-05-12T02:47:56.366Z,44.12
2018-05-12T02:48:36.894Z,43.36
2018-05-12T02:49:17.417Z,43.55
2018-05-12T02:49:58.849Z,44.12
2018-05-12T02:50:39.366Z,44.12
2018-05-12T02:51:19.894Z,43.74
2018-05-12T02:52:00.421Z,43.72
2018-05-12T02:52:40.947Z,43.82
2018-05-12T02:53:21.492Z,44.02
2018-05-12T02:54:01.987Z,44.41
2018-05-12T02:54:42.504Z,44.29
2018-05-12T02:55:23.021Z,44.29
2018-05-12T02:56:04.510Z,44.2
2018-05-12T02:56:45.691Z,44.1
2018-05-12T02:57:26.778Z,44.2
2018-05-12T02:58:06.735Z,44.2
2018-05-12T02:58:47.257Z,44.2
2018-05-12T02:59:28.278Z,44.2
2018-05-12T03:00:08.299Z,44.1
2018-05-12T03:00:49.507Z,44.2
2018-05-12T03:01:30.029Z,44.29
2018-05-12T03:02:10.557Z,44.2
2018-05-12T03:02:51.086Z,44.1
2018-05-12T03:03:31.596Z,44.2
2018-05-12T03:04:12.773Z,44.2
2018-05-12T03:04:53.630Z,44.2
2018-05-12T03:05:34.156Z,44.1
2018-05-12T03:06:14.683Z,44.2
2018-05-12T03:06:55.207Z,44.2
2018-05-12T03:07:35.733Z,44.01
2018-05-12T03:08:16.489Z,44.1
2018-05-12T03:08:57.022Z,44.2
2018-05-12T03:09:37.546Z,44.2
2018-05-12T03:10:18.072Z,44.2
2018-05-12T03:11:00.277Z,43.91
2018-05-12T03:11:40.774Z,44.2
2018-05-12T03:12:20.364Z,43.82
2018-05-12T03:13:00.895Z,44.1
2018-05-12T03:13:41.426Z,43.91
2018-05-12T03:14:21.961Z,44.1
2018-05-12T03:15:02.484Z,44.1
2018-05-12T03:15:42.988Z,43.91
2018-05-12T03:16:23.499Z,43.91
2018-05-12T03:17:04.027Z,44.01
2018-05-12T03:17:44.553Z,44.1
2018-05-12T03:18:25.080Z,44.1
2018-05-12T03:19:05.601Z,44.1
2018-05-12T03:19:46.122Z,43.91
2018-05-12T03:20:26.648Z,43.91
2018-05-12T03:21:07.180Z,44.01
2018-05-12T03:21:47.691Z,44.01
2018-05-12T03:22:28.219Z,44.48
2018-05-12T03:23:10.277Z,44.48
2018-05-12T03:23:50.219Z,44.2
2018-05-12T03:24:30.747Z,44.01
2018-05-12T03:25:11.776Z,43.91
2018-05-12T03:25:51.792Z,44.38
2018-05-12T03:26:32.317Z,44.01
2018-05-12T03:27:12.847Z,44.01
2018-05-12T03:27:53.378Z,43.91
2018-05-12T03:28:33.907Z,44.38
2018-05-12T03:29:14.436Z,44.01
2018-05-12T03:29:54.962Z,44.29
2018-05-12T03:30:36.275Z,43.91
2018-05-12T03:31:16.610Z,44.01
2018-05-12T03:31:57.130Z,44.29
2018-05-12T03:32:37.655Z,44.38
2018-05-12T03:33:18.204Z,44.48
2018-05-12T03:33:59.275Z,44.48
2018-05-12T03:34:39.251Z,44.38
2018-05-12T03:35:19.785Z,44.48
2018-05-12T03:36:00.311Z,44.48
2018-05-12T03:36:40.835Z,44.38
2018-05-12T03:37:21.363Z,44.48
2018-05-12T03:38:01.892Z,44.2
2018-05-12T03:38:42.408Z,44.48
2018-05-12T03:39:22.930Z,44.48
2018-05-12T03:40:03.461Z,44.48
2018-05-12T03:40:43.985Z,44.38
2018-05-12T03:41:24.503Z,44.2
2018-05-12T03:42:05.031Z,44.38
2018-05-12T03:42:46.125Z,44.48
2018-05-12T03:43:26.654Z,43.91
2018-05-12T03:44:07.177Z,44.01
2018-05-12T03:44:47.710Z,44.01
2018-05-12T03:45:28.245Z,43.91
2018-05-12T03:46:08.771Z,44.01
2018-05-12T03:46:50.274Z,43.91
2018-05-12T03:47:31.276Z,43.91
2018-05-12T03:48:10.945Z,43.91
2018-05-12T03:48:51.465Z,43.91
2018-05-12T03:49:31.998Z,44.01
2018-05-12T03:50:12.526Z,43.82
2018-05-12T03:50:53.050Z,44.01
2018-05-12T03:51:33.576Z,43.91
2018-05-12T03:52:14.703Z,44.01
2018-05-12T03:52:55.214Z,44.01
2018-05-12T03:53:35.741Z,44.01
2018-05-12T03:54:16.266Z,44.2
2018-05-12T03:54:56.793Z,44.2
2018-05-12T03:55:37.322Z,44.1
2018-05-12T03:56:18.776Z,44.1
2018-05-12T03:56:58.374Z,44.2
2018-05-12T03:57:38.924Z,44.2
2018-05-12T03:58:19.450Z,44.2
2018-05-12T03:58:59.975Z,44.29
2018-05-12T03:59:41.406Z,44.2
2018-05-12T04:00:22.519Z,44.2
2018-05-12T04:01:03.637Z,44.2
2018-05-12T04:01:44.168Z,44.2
2018-05-12T04:02:24.695Z,44.2
2018-05-12T04:03:05.209Z,44.29
2018-05-12T04:03:45.739Z,44.2
2018-05-12T04:04:27.798Z,44.2
2018-05-12T04:05:09.120Z,44.2
2018-05-12T04:05:49.650Z,44.1
2018-05-12T04:06:30.172Z,44.12
2018-05-12T04:07:10.707Z,44.2
2018-05-12T04:07:51.228Z,44.2
2018-05-12T04:08:31.776Z,44.2
2018-05-12T04:09:12.285Z,44.22
2018-05-12T04:09:52.797Z,44.12
2018-05-12T04:10:33.325Z,44.2
2018-05-12T04:11:13.848Z,44.29
2018-05-12T04:11:58.200Z,44.02
2018-05-12T04:12:40.648Z,43.65
2018-05-12T04:13:22.951Z,43.55
2018-05-12T04:14:03.537Z,43.84
2018-05-12T04:15:58.707Z,43.93
2018-05-12T04:19:10.838Z,43.74
2018-05-12T04:19:52.433Z,43.74
2018-05-12T04:20:33.640Z,43.74
2018-05-12T04:21:14.658Z,43.55
2018-05-12T04:21:55.651Z,43.65
2018-05-12T04:22:36.253Z,43.65
2018-05-12T04:23:16.881Z,43.36
2018-05-12T04:23:58.035Z,43.36
2018-05-12T04:24:39.461Z,43.46
2018-05-12T04:25:19.969Z,43.36
2018-05-12T04:26:00.818Z,43.46
2018-05-12T04:26:41.705Z,43.17
2018-05-12T04:27:22.259Z,43.48
2018-05-12T04:28:03.246Z,43.57
2018-05-12T04:28:43.901Z,43.29
2018-05-12T04:29:24.509Z,43.66
2018-05-12T04:30:05.090Z,43.66
2018-05-12T04:30:45.632Z,43.66
2018-05-12T04:31:26.958Z,43.57
2018-05-12T04:32:07.979Z,43.66
2018-05-12T04:32:49.677Z,43.38
2018-05-12T04:33:30.045Z,43.66
2018-05-12T04:34:10.583Z,43.38
2018-05-12T04:34:51.088Z,43.48
2018-05-12T04:35:31.610Z,43.38
2018-05-12T04:36:12.137Z,43.38
2018-05-12T04:36:52.808Z,43.29
2018-05-12T04:37:33.943Z,43.29
2018-05-12T04:38:13.857Z,43.48
2018-05-12T04:38:54.385Z,43.48
2018-05-12T04:39:35.434Z,43.57
2018-05-12T04:40:16.273Z,43.57
2018-05-12T04:40:57.514Z,43.29
2018-05-12T04:41:39.508Z,43.57
2018-05-12T04:42:21.004Z,43.19
2018-05-12T04:43:02.157Z,43.21
2018-05-12T04:43:44.116Z,43.21
2018-05-12T04:44:25.694Z,43.21
2018-05-12T04:45:07.072Z,43.3
2018-05-12T04:45:47.867Z,43.4
2018-05-12T04:46:28.747Z,43.4
2018-05-12T04:47:09.420Z,43.3
2018-05-12T04:47:50.160Z,43.21
2018-05-12T04:48:31.831Z,43.21
2018-05-12T04:49:12.133Z,43.59
2018-05-12T04:49:53.221Z,43.4
2018-05-12T04:50:33.802Z,43.5
2018-05-12T04:51:15.938Z,43.5
2018-05-12T04:51:56.218Z,43.4
2018-05-12T04:52:37.098Z,43.4
2018-05-12T04:53:17.761Z,43.5
2018-05-12T04:53:58.674Z,43.5
2018-05-12T04:54:39.314Z,43.5
2018-05-12T04:55:20.620Z,43.4
2018-05-12T04:56:01.949Z,43.21
2018-05-12T04:56:42.738Z,43.5
2018-05-12T04:57:23.740Z,43.4
2018-05-12T04:58:04.463Z,43.21
2018-05-12T04:58:45.200Z,43.4
2018-05-12T04:59:26.064Z,43.3
2018-05-12T05:00:07.942Z,43.12
2018-05-12T05:00:49.939Z,43.04
2018-05-12T05:01:30.941Z,43.04
2018-05-12T05:02:11.184Z,43.12
2018-05-12T05:02:51.936Z,42.85
2018-05-12T05:03:32.920Z,43.04
2018-05-12T05:04:15.587Z,42.76
2018-05-12T05:04:55.021Z,43.04
2018-05-12T05:05:35.953Z,42.85
2018-05-12T05:06:16.981Z,42.94
2018-05-12T05:06:57.857Z,42.85
2018-05-12T05:07:38.647Z,42.85
2018-05-12T05:08:19.412Z,43.04
2018-05-12T05:09:00.037Z,42.85
2018-05-12T05:09:40.607Z,42.56
2018-05-12T05:10:21.156Z,42.66
2018-05-12T05:11:01.682Z,42.56
2018-05-12T05:11:42.194Z,42.66
2018-05-12T05:12:22.733Z,42.66
2018-05-12T05:13:03.252Z,42.56
2018-05-12T05:13:44.509Z,42.47
2018-05-12T05:14:25.040Z,42.58
2018-05-12T05:15:05.576Z,42.58
2018-05-12T05:15:46.092Z,42.77
2018-05-12T05:16:26.642Z,42.77
2018-05-12T05:17:07.167Z,42.77
2018-05-12T05:17:47.699Z,42.87
2018-05-12T05:18:28.944Z,42.87
2018-05-12T05:19:08.724Z,42.97
2018-05-12T05:19:49.255Z,42.87
2018-05-12T05:20:29.774Z,42.68
2018-05-12T05:21:10.365Z,42.3
2018-05-12T05:21:50.815Z,42.4
2018-05-12T05:22:31.344Z,42.41
2018-05-12T05:23:11.874Z,42.49
2018-05-12T05:23:52.436Z,42.4
2018-05-12T05:24:32.962Z,42.51
2018-05-12T05:25:13.498Z,42.22
2018-05-12T05:25:55.053Z,42.41
2018-05-12T05:28:30.733Z,42.13
2018-05-12T05:29:13.511Z,42.03
2018-05-12T05:29:54.192Z,41.94
2018-05-12T05:30:35.297Z,41.84
2018-05-12T05:31:16.401Z,41.84
2018-05-12T05:31:57.411Z,41.86
2018-05-12T05:32:39.912Z,41.86
2018-05-12T05:33:19.493Z,42.05
2018-05-12T05:34:00.091Z,42.05
2018-05-12T05:34:40.542Z,41.77
2018-05-12T05:35:21.096Z,42.05
2018-05-12T05:36:01.580Z,42.14
2018-05-12T05:36:42.100Z,42.14
2018-05-12T05:37:22.636Z,41.86
2018-05-12T05:38:03.148Z,41.67
2018-05-12T05:38:43.671Z,41.77
2018-05-12T05:39:24.919Z,41.86
2018-05-12T05:40:04.683Z,41.86
2018-05-12T05:40:45.219Z,41.78
2018-05-12T05:41:25.742Z,41.78
2018-05-12T05:42:06.913Z,41.97
2018-05-12T05:42:46.794Z,41.88
2018-05-12T05:43:27.311Z,41.78
2018-05-12T05:44:09.414Z,41.88
2018-05-12T05:44:49.016Z,41.78
2018-05-12T05:45:29.534Z,41.78
2018-05-12T05:46:10.068Z,41.69
2018-05-12T05:46:50.593Z,41.69
2018-05-12T05:47:31.120Z,41.6
2018-05-12T05:48:11.649Z,41.4
2018-05-12T05:48:52.916Z,41.71
2018-05-12T05:49:32.689Z,41.8
2018-05-12T05:50:13.222Z,41.52
2018-05-12T05:50:53.738Z,41.52
2018-05-12T05:51:34.271Z,41.61
2018-05-12T05:52:14.801Z,41.52
2018-05-12T05:52:55.331Z,41.33
2018-05-12T05:53:35.858Z,41.44
2018-05-12T05:54:17.249Z,41.25
2018-05-12T05:54:57.776Z,41.25
2018-05-12T05:55:38.309Z,41.63
2018-05-12T05:56:18.832Z,41.16
2018-05-12T05:56:59.357Z,41.25
2018-05-12T05:57:39.883Z,41.25
2018-05-12T05:58:20.415Z,41.25
2018-05-12T06:01:35.123Z,40.89
2018-05-12T06:02:15.636Z,40.89
2018-05-12T06:02:56.168Z,40.99
2018-05-12T06:03:36.695Z,40.43
2018-05-12T06:04:17.227Z,40.52
2018-05-12T06:04:57.818Z,40.33
2018-05-12T06:05:38.347Z,40.43
2018-05-12T06:06:18.878Z,40.14
2018-05-12T06:06:59.612Z,40.06
2018-05-12T06:07:40.003Z,39.97
2018-05-12T06:08:20.537Z,39.97
2018-05-12T06:09:01.060Z,40.06
2018-05-12T06:09:41.572Z,39.58
2018-05-12T06:10:22.102Z,39.51
2018-05-12T06:11:03.042Z,39.89
2018-05-12T06:11:47.176Z,39.61
2018-05-12T06:12:28.802Z,39.41
2018-05-12T06:13:09.810Z,39.51
2018-05-12T06:13:50.331Z,39.51
2018-05-12T06:14:32.000Z,39.62
2018-05-12T06:15:13.653Z,39.43
2018-05-12T06:15:54.248Z,38.85
2018-05-12T06:16:35.279Z,38.78
2018-05-12T06:17:15.799Z,38.29
2018-05-12T06:17:56.319Z,38.41
2018-05-12T06:18:36.850Z,38.41
2018-05-12T06:19:17.376Z,37.76
2018-05-12T06:19:57.886Z,37.66
2018-05-12T06:20:38.513Z,37.68
2018-05-12T06:21:19.050Z,37.58
2018-05-12T06:22:00.461Z,37.21
2018-05-12T06:22:41.011Z,36.94
2018-05-12T06:23:22.049Z,36.57
2018-05-12T06:24:03.033Z,36.29
2018-05-12T06:24:44.638Z,35.82
2018-05-12T06:25:25.068Z,35.84
2018-05-12T06:26:05.656Z,35.76
2018-05-12T06:26:46.180Z,35.49
2018-05-12T06:27:27.643Z,35.49
2018-05-12T06:28:07.230Z,35.21
2018-05-12T06:28:48.641Z,35.31
2018-05-12T06:29:28.563Z,35.41
2018-05-12T06:30:09.019Z,35.5
2018-05-12T06:30:49.544Z,35.42
2018-05-12T06:31:30.077Z,35.23
2018-05-12T06:32:10.605Z,35.05
2018-05-12T06:32:51.673Z,34.77
2018-05-12T06:33:32.310Z,34.77
2018-05-12T06:34:13.124Z,34.49
2018-05-12T06:34:53.649Z,34.41
2018-05-12T06:35:35.141Z,34.7
2018-05-12T06:36:15.176Z,34.51
2018-05-12T06:36:55.706Z,34.22
2018-05-12T06:37:36.239Z,34.23
2018-05-12T06:38:23.396Z,34.04
2018-05-12T06:39:03.487Z,34.14
2018-05-12T06:39:44.305Z,34.14
2018-05-12T06:40:24.831Z,34.43
2018-05-12T06:41:06.146Z,34.62
2018-05-12T06:41:45.885Z,34.62
2018-05-12T06:42:26.413Z,34.43
2018-05-12T06:43:06.945Z,34.44
2018-05-12T06:43:48.144Z,34.64
2018-05-12T06:44:28.012Z,34.74
2018-05-12T06:45:08.540Z,34.25
2018-05-12T06:45:49.073Z,34.08
2018-05-12T06:46:29.603Z,34.17
2018-05-12T06:47:10.139Z,34.35
2018-05-12T06:47:51.148Z,34.64
2018-05-12T06:48:32.146Z,34.44
2018-05-12T06:49:11.718Z,34.44
2018-05-12T06:49:52.252Z,34.64
2018-05-12T06:50:32.802Z,34.83
2018-05-12T06:51:13.350Z,34.93
2018-05-12T06:51:53.879Z,34.74
2018-05-12T06:52:34.403Z,35.03
2018-05-12T06:53:14.924Z,35.3
2018-05-12T06:53:55.501Z,35.32
2018-05-12T06:54:36.024Z,35.3
2018-05-12T06:55:16.548Z,35.78
2018-05-12T06:55:57.106Z,35.3
2018-05-12T06:56:37.601Z,35.98
2018-05-12T06:57:18.128Z,35.69
2018-05-12T06:57:58.657Z,35.96
2018-05-12T06:58:41.466Z,36.35
2018-05-12T06:59:21.385Z,36.35
2018-05-12T07:00:01.918Z,36.64
2018-05-12T07:00:42.446Z,36.52
2018-05-12T07:01:23.045Z,36.82
2018-05-12T07:02:03.499Z,36.91
2018-05-12T07:02:44.032Z,36.82
2018-05-12T07:03:24.579Z,36.91
2018-05-12T07:04:06.751Z,36.91
2018-05-12T07:04:47.371Z,36.82
2018-05-12T07:05:27.877Z,36.82
2018-05-12T07:06:08.412Z,36.91
2018-05-12T07:06:48.950Z,36.82
2018-05-12T07:07:29.666Z,36.72
2018-05-12T07:08:10.384Z,36.52
2018-05-12T07:08:50.924Z,36.82
2018-05-12T07:09:31.452Z,36.72
2018-05-12T07:10:11.974Z,36.43
2018-05-12T07:10:52.521Z,36.54
2018-05-12T07:11:33.045Z,36.25
2018-05-12T07:12:13.587Z,35.98
2018-05-12T07:12:54.655Z,35.69
2018-05-12T07:13:34.649Z,35.59
2018-05-12T07:14:15.185Z,34.75
2018-05-12T07:14:55.716Z,34.19
2018-05-12T07:15:36.282Z,33.72
2018-05-12T07:16:17.659Z,33.33
2018-05-12T07:16:57.471Z,33.43
2018-05-12T07:17:38.009Z,33.62
2018-05-12T07:18:18.600Z,33.64
2018-05-12T07:19:00.200Z,33.46
2018-05-12T07:19:41.664Z,33.07
2018-05-12T07:20:21.233Z,33.36
2018-05-12T07:21:01.764Z,33.56
2018-05-12T07:21:42.304Z,33.36
2018-05-12T07:22:22.829Z,33.26
2018-05-12T07:23:03.365Z,33.26
2018-05-12T07:23:43.892Z,33.17
2018-05-12T07:24:25.162Z,33.38
2018-05-12T07:25:04.920Z,33.48
2018-05-12T07:25:47.406Z,32.91
2018-05-12T07:26:27.936Z,32.62
2018-05-12T07:27:08.454Z,32.34
2018-05-12T07:27:48.974Z,32.06
2018-05-12T07:28:29.506Z,31.79
2018-05-12T07:29:10.026Z,31.6
2018-05-12T07:29:50.555Z,31.04
2018-05-12T07:30:31.105Z,30.57
2018-05-12T07:31:11.639Z,29.73
2018-05-12T07:31:52.521Z,29.73
2018-05-12T07:32:33.024Z,29.73
2018-05-12T07:33:13.890Z,30.22
2018-05-12T07:33:54.423Z,30.69
2018-05-12T07:34:34.958Z,30.59
2018-05-12T07:35:15.492Z,30.61
2018-05-12T07:35:56.014Z,30.61
2018-05-12T07:36:36.550Z,30.61
2018-05-12T07:37:17.091Z,30.9
2018-05-12T07:37:57.626Z,31.1
2018-05-12T07:38:38.424Z,31.29
2018-05-12T07:39:18.954Z,31.39
2018-05-12T07:39:59.489Z,31.59
2018-05-12T07:40:40.023Z,31.59
2018-05-12T07:41:20.559Z,31.68
2018-05-12T07:42:01.075Z,31.31
2018-05-12T07:42:41.609Z,31.41
2018-05-12T07:43:22.137Z,31.11
2018-05-12T07:44:03.122Z,30.46
2018-05-12T07:44:44.542Z,29.8
2018-05-12T07:45:25.146Z,29.53
2018-05-12T07:46:05.606Z,28.2
2018-05-12T07:46:46.350Z,27.82
2018-05-12T07:47:27.087Z,27.36
2018-05-12T07:48:07.618Z,26.89
2018-05-12T07:48:48.137Z,25.56
2018-05-12T07:49:28.673Z,25.45
2018-05-12T07:50:09.228Z,25.95
2018-05-12T07:50:49.850Z,26.14
2018-05-12T07:51:30.481Z,27.11
2018-05-12T07:52:11.062Z,27.01
2018-05-12T07:52:51.775Z,26.08
2018-05-12T07:53:32.295Z,23.88
2018-05-12T07:54:12.827Z,24.55
2018-05-12T07:54:53.465Z,25.32
2018-05-12T07:55:33.996Z,25.61
2018-05-12T07:56:14.537Z,25.91
2018-05-12T07:56:55.752Z,25.73
2018-05-12T07:57:37.001Z,23.91
2018-05-12T07:58:17.541Z,23.45
2018-05-12T07:58:58.074Z,21.63
2018-05-12T07:59:38.610Z,20.39
2018-05-12T08:00:19.157Z,19.92
2018-05-12T08:00:59.686Z,19.64
2018-05-12T08:01:40.265Z,20.79
2018-05-12T08:02:21.677Z,22.16
2018-05-12T08:03:01.271Z,21.97
2018-05-12T08:03:42.679Z,20.73
2018-05-12T08:04:22.335Z,19.57
2018-05-12T08:05:02.869Z,19.57
2018-05-12T08:05:43.397Z,19.32
2018-05-12T08:06:24.856Z,18.24
2018-05-12T08:07:05.388Z,17.68
2018-05-12T08:07:46.118Z,16.79
2018-05-12T08:08:26.455Z,16.72
2018-05-12T08:09:06.994Z,16.14
2018-05-12T08:09:47.544Z,16.27
2018-05-12T08:10:28.689Z,15.98
2018-05-12T08:11:08.604Z,15.38
2018-05-12T08:11:49.342Z,15.71
2018-05-12T08:12:30.324Z,15.63
2018-05-12T08:13:10.892Z,15.13
2018-05-12T08:13:51.443Z,15.53
2018-05-12T08:14:32.687Z,17.21
2018-05-12T08:15:12.517Z,18.38
2018-05-12T08:15:53.057Z,19.17
2018-05-12T08:16:33.599Z,17.81
2018-05-12T08:17:14.133Z,16.73
2018-05-12T08:17:54.666Z,16.16
2018-05-12T08:18:35.203Z,15.58
2018-05-12T08:19:16.575Z,15.09
2018-05-12T08:19:57.123Z,15.1
2018-05-12T08:20:37.721Z,15
2018-05-12T08:21:18.198Z,15.62
2018-05-12T08:21:58.737Z,15.91
2018-05-12T08:22:39.272Z,16.89
2018-05-12T08:23:19.877Z,17.78
2018-05-12T08:24:00.401Z,18.56
2018-05-12T08:24:40.944Z,19.64
2018-05-12T08:25:21.489Z,20.62
2018-05-12T08:26:03.721Z,21.09
2018-05-12T08:26:44.375Z,21.37
2018-05-12T08:27:25.767Z,21.57
2018-05-12T08:28:06.310Z,21.68
2018-05-12T08:28:46.830Z,20.59
2018-05-12T08:29:27.355Z,20.59
2018-05-12T08:30:07.957Z,20.01
2018-05-12T08:30:48.604Z,20.01
2018-05-12T08:31:29.153Z,19.81
2018-05-12T08:32:09.620Z,19.82
2018-05-12T08:32:50.165Z,19.71
2018-05-12T08:33:31.202Z,19.02
2018-05-12T08:34:12.204Z,18.54
2018-05-12T08:34:51.788Z,18.15
2018-05-12T08:35:32.331Z,17.76
2018-05-12T08:36:12.865Z,17.96
2018-05-12T08:36:53.406Z,17.16
2018-05-12T08:37:33.939Z,17.85
2018-05-12T08:38:14.480Z,17.85
2018-05-12T08:38:55.011Z,16.5
2018-05-12T08:39:35.558Z,16.69
2018-05-12T08:40:16.094Z,17.07
2018-05-12T08:40:56.655Z,17.87
2018-05-12T08:41:37.934Z,18.55
2018-05-12T08:42:18.466Z,19.43
2018-05-12T08:42:59.011Z,19.93
2018-05-12T08:43:40.278Z,20.42
2018-05-12T08:44:20.818Z,19.63
2018-05-12T08:45:01.363Z,19.63
2018-05-12T08:45:41.917Z,20.01
2018-05-12T08:46:22.431Z,20.79
2018-05-12T08:47:02.976Z,19.04
2018-05-12T08:47:44.215Z,18.65
2018-05-12T08:48:24.950Z,16.29
2018-05-12T08:49:05.387Z,15.32
2018-05-12T08:49:45.934Z,14.44
2018-05-12T08:50:26.463Z,13.53
2018-05-12T08:51:07.003Z,13.94
2018-05-12T08:51:47.541Z,13.85
2018-05-12T08:52:28.717Z,13.87
2018-05-12T08:53:09.719Z,13.97
2018-05-12T08:53:49.392Z,13.87
2018-05-12T08:54:29.945Z,14.38
2018-05-12T08:55:10.485Z,14.69
2018-05-12T08:55:51.020Z,15.19
2018-05-12T08:56:31.566Z,14.89
2018-05-12T08:57:12.717Z,13.7